Decoded Metar for LFLX (CHATEAUROUX in FRANCE) (IATA:CHR) | Meteo·Mobile Aviation Weather
aviador You're here:

LFLX Decoded Metar

CHATEAUROUX in FRANCE
Report Time2018-12-16 16:30:00
UTC Time2018-12-16 17:02:01
Flight Rules ifr IFR
Wind170° at 05 kt
W.Decomp.*RWY 21: 3.8 kt HW 3.2 kt LCW
W.Rank170° ranks 32
Current wind is above 170° avg. (4.4)
Visibility9999 m
Phenomena:Shower Rain
Clouds:Broken 008 Hf
Expected CloudBase > 1,200 ft AGL from Temp-Dew spread
Ceiling800 ft
Temp08°C (ISA -6)
Dew Point05°C (82% RH)
AAT5.1°C
QNH1012 hPa
Density Alt-46 ft
Elevation515 ft
Report Wrong Elevation
Raw Report
METAR LFLX 161630Z AUTO 17005KT CAVOK 08/05 Q1012 TEMPO 24012G25KT
4000 SHRA BKN008 BKN025CB=

Extra information for LFLX:More info

Metar Taf Metar & Taf Last 4 Metars F.Rules Stats Wind Profile Meteogram Temp Stats Airport Information Weather charts Add Link Nearby VenuesMetar ALERT Operation Metar Decoded Social comments